Custer, KY

8:45 AM CDT on May 24, 2015 (GMT -0500)
Eveleigh Road | | Change Station
CLOSE
Current Station
Personal Weather Station
Location: Leitchfield, KY
Elevation: 670 ft
Nearby Weather Stations

Elev 670 ft 37.58 °N, 86.34 °W | Updated 6 seconds ago

Partly Cloudy
Partly Cloudy
73.2 °F
Feels Like 76 °F
N
5.4
Wind Variable Wind from SW
Gusts 7.6 mph

Today
High -- | Low -- °F
--% Chance of Precip.
Yesterday
High -- | Low -- °F
Precip. -- in
5:28 AM 7:55 PM
Waxing Crescent, 39% visible
Pressure 30.25 in
Visibility 10.0 miles
Clouds Mostly Cloudy 12000 ft
Heat Index 76 °F
Dew Point 60 °F
Humidity 62%
Rainfall 0.00 in
Snow Depth Not available.
UV 1 out of 12
Pollen 8.70 out of 12
Air Quality Not available.
Flu Activity Sporadic
METAR KFTK 241258Z AUTO 18009KT 10SM BKN120 20/12 A3025 RMK AO2 SLP242 T02040115

More Conditions Fewer Conditions

Pressure 30.25 in
Visibility 10.0 miles
Clouds Mostly Cloudy 12000 ft
Heat Index 76 °F
Dew Point 60 °F
Humidity 62%
Rainfall 0.00 in
Snow Depth Not available.
UV 1 out of 12
Pollen 8.70 out of 12
Air Quality Not available.
Flu Activity Sporadic
METAR KFTK 241258Z AUTO 18009KT 10SM BKN120 20/12 A3025 RMK AO2 SLP242 T02040115

More Conditions Fewer Conditions

10-Day Weather Forecast

Almanac

Astronomy

May. 24, 2015 Rise Set
Actual Time
Civil Twilight
Nautical Twilight
Astronomical Twilight
Moon
Length of Visible Light
Length of Day
Tomorrow will be .
, % of the Moon is Illuminated

Today's Extremes

State Highs State Lows

Community

WunderPhotos

Upload Photos

1,823,738 photos uploaded!

WunderBlogs® & News

Nearby

Air Quality

  Air Quality AQ Index Pollutant
Not available.

Snow Depth

Station Depth Elevation

Earthquake Activity

City Distance Mag. Time & Date
Minimum magnitude displayed is 2.5.

Coastal Water Temperatures

Place Temperature

Stations

Nearby Weather Stations

Station Location Temp. Windchill Dew Point Humidity Wind Precip. Elev Updated Type